sensor_id;sensor_type;location;lat;lon;timestamp;P1;durP1;ratioP1;P2;durP2;ratioP2
27979;SDS011;15315;50.836;4.430;2023-08-06T00:09:54;5.22;;;2.03;;
27979;SDS011;15315;50.836;4.430;2023-08-06T00:19:55;5.47;;;2.35;;
27979;SDS011;15315;50.836;4.430;2023-08-06T00:29:55;5.50;;;2.30;;
27979;SDS011;15315;50.836;4.430;2023-08-06T00:39:56;6.32;;;3.08;;
27979;SDS011;15315;50.836;4.430;2023-08-06T00:49:56;11.23;;;4.18;;
27979;SDS011;15315;50.836;4.430;2023-08-06T00:59:57;11.27;;;5.30;;
27979;SDS011;15315;50.836;4.430;2023-08-06T01:10:09;11.77;;;4.70;;
27979;SDS011;15315;50.836;4.430;2023-08-06T01:20:19;12.13;;;5.88;;
27979;SDS011;15315;50.836;4.430;2023-08-06T01:30:20;11.10;;;5.78;;
27979;SDS011;15315;50.836;4.430;2023-08-06T01:40:26;11.88;;;5.88;;
27979;SDS011;15315;50.836;4.430;2023-08-06T01:50:28;9.95;;;6.40;;
27979;SDS011;15315;50.836;4.430;2023-08-06T02:00:28;12.70;;;5.90;;
27979;SDS011;15315;50.836;4.430;2023-08-06T02:10:29;11.07;;;5.10;;
27979;SDS011;15315;50.836;4.430;2023-08-06T02:20:29;9.35;;;3.58;;
27979;SDS011;15315;50.836;4.430;2023-08-06T02:30:29;8.73;;;2.70;;
27979;SDS011;15315;50.836;4.430;2023-08-06T02:40:30;11.40;;;3.13;;
27979;SDS011;15315;50.836;4.430;2023-08-06T02:50:31;8.70;;;2.50;;
27979;SDS011;15315;50.836;4.430;2023-08-06T03:00:31;11.82;;;2.50;;
27979;SDS011;15315;50.836;4.430;2023-08-06T03:10:31;10.27;;;3.00;;
27979;SDS011;15315;50.836;4.430;2023-08-06T03:20:32;12.75;;;3.80;;
27979;SDS011;15315;50.836;4.430;2023-08-06T03:30:32;15.43;;;7.03;;
27979;SDS011;15315;50.836;4.430;2023-08-06T03:40:37;29.23;;;13.27;;
27979;SDS011;15315;50.836;4.430;2023-08-06T04:00:38;12.80;;;7.25;;
27979;SDS011;15315;50.836;4.430;2023-08-06T04:10:38;32.17;;;5.90;;
27979;SDS011;15315;50.836;4.430;2023-08-06T04:20:45;0.00;;;0.00;;
27979;SDS011;15315;50.836;4.430;2023-08-06T04:30:46;0.00;;;0.00;;
27979;SDS011;15315;50.836;4.430;2023-08-06T04:40:46;0.10;;;0.10;;
27979;SDS011;15315;50.836;4.430;2023-08-06T04:50:47;0.28;;;0.28;;
27979;SDS011;15315;50.836;4.430;2023-08-06T05:00:48;0.00;;;0.00;;
27979;SDS011;15315;50.836;4.430;2023-08-06T05:10:49;0.10;;;0.10;;
27979;SDS011;15315;50.836;4.430;2023-08-06T05:20:49;0.00;;;0.00;;
27979;SDS011;15315;50.836;4.430;2023-08-06T05:30:49;0.00;;;0.00;;
27979;SDS011;15315;50.836;4.430;2023-08-06T05:40:50;0.00;;;0.00;;
27979;SDS011;15315;50.836;4.430;2023-08-06T05:50:51;0.10;;;0.10;;
27979;SDS011;15315;50.836;4.430;2023-08-06T06:00:52;0.10;;;0.10;;
27979;SDS011;15315;50.836;4.430;2023-08-06T06:10:52;0.00;;;0.00;;
27979;SDS011;15315;50.836;4.430;2023-08-06T06:20:52;0.00;;;0.00;;
27979;SDS011;15315;50.836;4.430;2023-08-06T06:30:53;0.03;;;0.03;;
27979;SDS011;15315;50.836;4.430;2023-08-06T06:40:54;0.55;;;0.55;;
27979;SDS011;15315;50.836;4.430;2023-08-06T06:50:55;0.32;;;0.32;;
27979;SDS011;15315;50.836;4.430;2023-08-06T07:00:56;2.38;;;0.82;;
27979;SDS011;15315;50.836;4.430;2023-08-06T07:11:03;18.52;;;1.75;;
27979;SDS011;15315;50.836;4.430;2023-08-06T07:21:04;0.20;;;0.20;;
27979;SDS011;15315;50.836;4.430;2023-08-06T07:31:04;0.00;;;0.00;;
27979;SDS011;15315;50.836;4.430;2023-08-06T07:41:05;0.00;;;0.00;;
27979;SDS011;15315;50.836;4.430;2023-08-06T07:51:05;0.00;;;0.00;;
27979;SDS011;15315;50.836;4.430;2023-08-06T08:01:06;0.00;;;0.00;;
27979;SDS011;15315;50.836;4.430;2023-08-06T08:11:06;0.00;;;0.00;;
27979;SDS011;15315;50.836;4.430;2023-08-06T08:21:07;0.00;;;0.00;;
27979;SDS011;15315;50.836;4.430;2023-08-06T08:31:08;0.00;;;0.00;;
27979;SDS011;15315;50.836;4.430;2023-08-06T08:41:09;0.00;;;0.00;;
27979;SDS011;15315;50.836;4.430;2023-08-06T08:51:11;4.38;;;1.75;;
27979;SDS011;15315;50.836;4.430;2023-08-06T09:01:14;0.63;;;0.63;;
27979;SDS011;15315;50.836;4.430;2023-08-06T09:11:15;1.45;;;1.35;;
27979;SDS011;15315;50.836;4.430;2023-08-06T09:21:17;0.00;;;0.00;;
27979;SDS011;15315;50.836;4.430;2023-08-06T09:31:17;0.70;;;0.52;;
27979;SDS011;15315;50.836;4.430;2023-08-06T09:41:26;0.00;;;0.00;;
27979;SDS011;15315;50.836;4.430;2023-08-06T09:51:28;0.00;;;0.00;;
27979;SDS011;15315;50.836;4.430;2023-08-06T10:01:29;0.10;;;0.10;;
27979;SDS011;15315;50.836;4.430;2023-08-06T10:11:30;0.43;;;0.43;;
27979;SDS011;15315;50.836;4.430;2023-08-06T10:21:31;0.10;;;0.10;;
27979;SDS011;15315;50.836;4.430;2023-08-06T10:41:57;0.32;;;0.32;;
27979;SDS011;15315;50.836;4.430;2023-08-06T10:51:57;0.00;;;0.00;;
27979;SDS011;15315;50.836;4.430;2023-08-06T11:01:58;0.00;;;0.00;;
27979;SDS011;15315;50.836;4.430;2023-08-06T11:11:58;0.00;;;0.00;;
27979;SDS011;15315;50.836;4.430;2023-08-06T11:21:58;0.00;;;0.00;;
27979;SDS011;15315;50.836;4.430;2023-08-06T11:32:04;0.00;;;0.00;;
27979;SDS011;15315;50.836;4.430;2023-08-06T11:42:06;0.10;;;0.10;;
27979;SDS011;15315;50.836;4.430;2023-08-06T11:52:10;0.10;;;0.10;;
27979;SDS011;15315;50.836;4.430;2023-08-06T12:02:13;0.20;;;0.20;;
27979;SDS011;15315;50.836;4.430;2023-08-06T18:45:18;16.05;;;3.25;;
27979;SDS011;15315;50.836;4.430;2023-08-06T18:55:18;17.67;;;3.42;;
27979;SDS011;15315;50.836;4.430;2023-08-06T19:05:18;13.20;;;2.75;;
27979;SDS011;15315;50.836;4.430;2023-08-06T19:15:19;16.83;;;2.85;;
27979;SDS011;15315;50.836;4.430;2023-08-06T19:25:20;16.20;;;3.08;;
27979;SDS011;15315;50.836;4.430;2023-08-06T19:35:20;16.48;;;3.50;;
27979;SDS011;15315;50.836;4.430;2023-08-06T19:45:20;16.27;;;3.78;;
27979;SDS011;15315;50.836;4.430;2023-08-06T19:55:21;18.10;;;3.55;;
27979;SDS011;15315;50.836;4.430;2023-08-06T20:05:21;15.18;;;4.00;;
27979;SDS011;15315;50.836;4.430;2023-08-06T20:15:21;13.25;;;3.35;;
27979;SDS011;15315;50.836;4.430;2023-08-06T20:25:22;18.10;;;3.22;;
27979;SDS011;15315;50.836;4.430;2023-08-06T20:35:22;14.18;;;3.58;;
27979;SDS011;15315;50.836;4.430;2023-08-06T20:45:22;19.92;;;4.05;;
27979;SDS011;15315;50.836;4.430;2023-08-06T20:55:26;15.95;;;3.10;;
27979;SDS011;15315;50.836;4.430;2023-08-06T21:05:27;12.30;;;3.13;;
27979;SDS011;15315;50.836;4.430;2023-08-06T21:15:29;12.15;;;3.00;;
27979;SDS011;15315;50.836;4.430;2023-08-06T21:25:29;14.40;;;3.63;;
27979;SDS011;15315;50.836;4.430;2023-08-06T21:35:29;15.43;;;3.42;;
27979;SDS011;15315;50.836;4.430;2023-08-06T21:45:33;19.38;;;3.97;;
27979;SDS011;15315;50.836;4.430;2023-08-06T21:55:34;15.13;;;3.63;;
27979;SDS011;15315;50.836;4.430;2023-08-06T22:05:35;13.48;;;3.08;;
27979;SDS011;15315;50.836;4.430;2023-08-06T22:15:35;17.83;;;2.83;;
27979;SDS011;15315;50.836;4.430;2023-08-06T22:25:36;21.60;;;4.47;;
27979;SDS011;15315;50.836;4.430;2023-08-06T22:35:36;17.15;;;3.40;;
27979;SDS011;15315;50.836;4.430;2023-08-06T22:45:38;15.35;;;3.20;;
27979;SDS011;15315;50.836;4.430;2023-08-06T22:55:38;13.70;;;2.70;;
27979;SDS011;15315;50.836;4.430;2023-08-06T23:05:38;19.58;;;3.58;;
27979;SDS011;15315;50.836;4.430;2023-08-06T23:15:39;19.55;;;3.35;;
27979;SDS011;15315;50.836;4.430;2023-08-06T23:25:42;12.38;;;3.05;;
27979;SDS011;15315;50.836;4.430;2023-08-06T23:35:42;12.98;;;3.38;;
27979;SDS011;15315;50.836;4.430;2023-08-06T23:45:42;14.13;;;3.63;;
27979;SDS011;15315;50.836;4.430;2023-08-06T23:55:43;12.25;;;3.15;;
